sensor_id;sensor_type;location;lat;lon;timestamp;temperature;humidity
6930;DHT22;3504;52.616;13.238;2023-12-14T00:04:41;4.38;91.62
6930;DHT22;3504;52.616;13.238;2023-12-14T00:09:42;4.35;91.50
6930;DHT22;3504;52.616;13.238;2023-12-14T00:14:42;4.25;91.39
6930;DHT22;3504;52.616;13.238;2023-12-14T00:19:43;4.15;91.65
6930;DHT22;3504;52.616;13.238;2023-12-14T00:24:43;4.14;91.54
6930;DHT22;3504;52.616;13.238;2023-12-14T00:29:44;4.14;91.83
6930;DHT22;3504;52.616;13.238;2023-12-14T00:34:44;4.07;91.39
6930;DHT22;3504;52.616;13.238;2023-12-14T00:39:45;4.01;91.22
6930;DHT22;3504;52.616;13.238;2023-12-14T00:44:45;3.98;91.39
6930;DHT22;3504;52.616;13.238;2023-12-14T00:49:46;3.95;91.47
6930;DHT22;3504;52.616;13.238;2023-12-14T00:54:46;3.86;91.37
6930;DHT22;3504;52.616;13.238;2023-12-14T00:59:47;3.86;91.54
6930;DHT22;3504;52.616;13.238;2023-12-14T01:04:47;3.81;91.33
6930;DHT22;3504;52.616;13.238;2023-12-14T01:09:48;3.69;91.15
6930;DHT22;3504;52.616;13.238;2023-12-14T01:14:48;3.70;91.44
6930;DHT22;3504;52.616;13.238;2023-12-14T01:19:49;3.67;91.50
6930;DHT22;3504;52.616;13.238;2023-12-14T01:24:49;3.73;91.62
6930;DHT22;3504;52.616;13.238;2023-12-14T01:29:50;3.70;91.54
6930;DHT22;3504;52.616;13.238;2023-12-14T01:34:50;3.73;91.69
6930;DHT22;3504;52.616;13.238;2023-12-14T01:39:51;3.67;91.37
6930;DHT22;3504;52.616;13.238;2023-12-14T01:44:51;3.66;91.39
6930;DHT22;3504;52.616;13.238;2023-12-14T01:49:52;3.62;91.55
6930;DHT22;3504;52.616;13.238;2023-12-14T01:54:52;3.59;91.51
6930;DHT22;3504;52.616;13.238;2023-12-14T01:59:55;3.62;91.58
6930;DHT22;3504;52.616;13.238;2023-12-14T02:04:55;3.64;91.60
6930;DHT22;3504;52.616;13.238;2023-12-14T02:09:56;3.66;91.47
6930;DHT22;3504;52.616;13.238;2023-12-14T02:14:56;3.66;91.49
6930;DHT22;3504;52.616;13.238;2023-12-14T02:19:57;3.63;91.58
6930;DHT22;3504;52.616;13.238;2023-12-14T02:24:58;3.64;91.38
6930;DHT22;3504;52.616;13.238;2023-12-14T02:29:59;3.64;91.42
6930;DHT22;3504;52.616;13.238;2023-12-14T02:34:59;3.66;91.33
6930;DHT22;3504;52.616;13.238;2023-12-14T02:40:00;3.66;91.34
6930;DHT22;3504;52.616;13.238;2023-12-14T02:45:02;3.56;91.37
6930;DHT22;3504;52.616;13.238;2023-12-14T02:50:03;3.52;91.48
6930;DHT22;3504;52.616;13.238;2023-12-14T02:55:04;3.48;91.56
6930;DHT22;3504;52.616;13.238;2023-12-14T03:00:05;3.50;91.70
6930;DHT22;3504;52.616;13.238;2023-12-14T03:05:06;3.48;91.70
6930;DHT22;3504;52.616;13.238;2023-12-14T03:10:07;3.56;91.99
6930;DHT22;3504;52.616;13.238;2023-12-14T03:15:08;3.59;91.70
6930;DHT22;3504;52.616;13.238;2023-12-14T03:20:09;3.59;91.49
6930;DHT22;3504;52.616;13.238;2023-12-14T03:25:10;3.50;91.53
6930;DHT22;3504;52.616;13.238;2023-12-14T03:30:11;3.56;91.61
6930;DHT22;3504;52.616;13.238;2023-12-14T03:35:11;3.59;91.12
6930;DHT22;3504;52.616;13.238;2023-12-14T03:40:12;3.60;91.46
6930;DHT22;3504;52.616;13.238;2023-12-14T03:45:12;3.64;91.46
6930;DHT22;3504;52.616;13.238;2023-12-14T03:50:13;3.64;91.46
6930;DHT22;3504;52.616;13.238;2023-12-14T03:55:13;3.64;91.21
6930;DHT22;3504;52.616;13.238;2023-12-14T04:00:15;3.64;91.26
6930;DHT22;3504;52.616;13.238;2023-12-14T04:05:16;3.64;91.31
6930;DHT22;3504;52.616;13.238;2023-12-14T04:10:17;3.66;91.15
6930;DHT22;3504;52.616;13.238;2023-12-14T04:15:17;3.59;91.01
6930;DHT22;3504;52.616;13.238;2023-12-14T04:20:18;3.67;91.35
6930;DHT22;3504;52.616;13.238;2023-12-14T04:25:18;3.62;91.02
6930;DHT22;3504;52.616;13.238;2023-12-14T04:30:19;3.56;91.31
6930;DHT22;3504;52.616;13.238;2023-12-14T04:35:19;3.63;91.44
6930;DHT22;3504;52.616;13.238;2023-12-14T04:40:22;3.66;91.42
6930;DHT22;3504;52.616;13.238;2023-12-14T04:45:22;3.67;91.31
6930;DHT22;3504;52.616;13.238;2023-12-14T04:50:23;3.66;91.24
6930;DHT22;3504;52.616;13.238;2023-12-14T04:55:23;3.64;91.07
6930;DHT22;3504;52.616;13.238;2023-12-14T05:00:24;3.66;91.40
6930;DHT22;3504;52.616;13.238;2023-12-14T05:05:24;3.70;91.37
6930;DHT22;3504;52.616;13.238;2023-12-14T05:10:25;3.66;90.94
6930;DHT22;3504;52.616;13.238;2023-12-14T05:15:25;3.64;91.21
6930;DHT22;3504;52.616;13.238;2023-12-14T05:20:26;3.59;91.13
6930;DHT22;3504;52.616;13.238;2023-12-14T05:25:27;3.60;91.15
6930;DHT22;3504;52.616;13.238;2023-12-14T05:30:27;3.59;91.38
6930;DHT22;3504;52.616;13.238;2023-12-14T05:35:28;3.60;91.39
6930;DHT22;3504;52.616;13.238;2023-12-14T05:40:28;3.66;91.30
6930;DHT22;3504;52.616;13.238;2023-12-14T05:45:29;3.62;91.23
6930;DHT22;3504;52.616;13.238;2023-12-14T05:50:31;3.60;91.00
6930;DHT22;3504;52.616;13.238;2023-12-14T05:55:31;3.58;91.39
6930;DHT22;3504;52.616;13.238;2023-12-14T06:00:32;3.60;91.31
6930;DHT22;3504;52.616;13.238;2023-12-14T06:05:35;3.58;91.24
6930;DHT22;3504;52.616;13.238;2023-12-14T06:10:35;3.62;91.33
6930;DHT22;3504;52.616;13.238;2023-12-14T06:15:37;3.56;91.14
6930;DHT22;3504;52.616;13.238;2023-12-14T06:20:37;3.60;91.34
6930;DHT22;3504;52.616;13.238;2023-12-14T06:25:38;3.63;91.47
6930;DHT22;3504;52.616;13.238;2023-12-14T06:30:38;3.62;91.30
6930;DHT22;3504;52.616;13.238;2023-12-14T06:35:39;3.60;91.28
6930;DHT22;3504;52.616;13.238;2023-12-14T06:40:39;3.64;91.36
6930;DHT22;3504;52.616;13.238;2023-12-14T06:45:39;3.63;91.20
6930;DHT22;3504;52.616;13.238;2023-12-14T06:50:40;3.64;91.23
6930;DHT22;3504;52.616;13.238;2023-12-14T06:55:41;3.70;91.30
6930;DHT22;3504;52.616;13.238;2023-12-14T07:00:41;3.73;90.92
6930;DHT22;3504;52.616;13.238;2023-12-14T07:05:41;3.71;91.10
6930;DHT22;3504;52.616;13.238;2023-12-14T07:10:42;3.76;91.03
6930;DHT22;3504;52.616;13.238;2023-12-14T07:15:43;3.80;90.92
6930;DHT22;3504;52.616;13.238;2023-12-14T07:20:44;3.81;90.97
6930;DHT22;3504;52.616;13.238;2023-12-14T07:25:44;3.80;90.76
6930;DHT22;3504;52.616;13.238;2023-12-14T07:30:45;3.81;90.56
6930;DHT22;3504;52.616;13.238;2023-12-14T07:35:46;3.77;90.57
6930;DHT22;3504;52.616;13.238;2023-12-14T07:40:47;3.81;90.81
6930;DHT22;3504;52.616;13.238;2023-12-14T07:45:47;3.80;90.75
6930;DHT22;3504;52.616;13.238;2023-12-14T07:50:48;3.87;90.82
6930;DHT22;3504;52.616;13.238;2023-12-14T07:55:48;3.86;90.49
6930;DHT22;3504;52.616;13.238;2023-12-14T08:00:49;3.87;90.57
6930;DHT22;3504;52.616;13.238;2023-12-14T08:05:50;3.84;90.24
6930;DHT22;3504;52.616;13.238;2023-12-14T08:10:50;3.80;90.30
6930;DHT22;3504;52.616;13.238;2023-12-14T08:15:51;3.80;90.48
6930;DHT22;3504;52.616;13.238;2023-12-14T08:20:51;3.84;90.42
6930;DHT22;3504;52.616;13.238;2023-12-14T08:25:56;3.89;90.57
6930;DHT22;3504;52.616;13.238;2023-12-14T08:31:00;3.84;90.54
6930;DHT22;3504;52.616;13.238;2023-12-14T08:36:03;3.84;90.45
6930;DHT22;3504;52.616;13.238;2023-12-14T08:41:03;3.89;90.51
6930;DHT22;3504;52.616;13.238;2023-12-14T08:46:04;3.86;90.27
6930;DHT22;3504;52.616;13.238;2023-12-14T08:51:05;3.83;90.42
6930;DHT22;3504;52.616;13.238;2023-12-14T08:56:06;3.87;90.47
6930;DHT22;3504;52.616;13.238;2023-12-14T09:01:08;3.80;90.20
6930;DHT22;3504;52.616;13.238;2023-12-14T09:06:08;3.80;90.57
6930;DHT22;3504;52.616;13.238;2023-12-14T09:11:09;3.84;90.59
6930;DHT22;3504;52.616;13.238;2023-12-14T09:16:09;3.93;90.66
6930;DHT22;3504;52.616;13.238;2023-12-14T09:21:10;4.00;90.31
6930;DHT22;3504;52.616;13.238;2023-12-14T09:26:11;3.84;89.68
6930;DHT22;3504;52.616;13.238;2023-12-14T09:31:11;3.83;89.84
6930;DHT22;3504;52.616;13.238;2023-12-14T09:36:12;3.84;90.05
6930;DHT22;3504;52.616;13.238;2023-12-14T09:41:13;3.84;89.91
6930;DHT22;3504;52.616;13.238;2023-12-14T09:46:15;3.89;89.98
6930;DHT22;3504;52.616;13.238;2023-12-14T09:51:17;3.83;89.54
6930;DHT22;3504;52.616;13.238;2023-12-14T09:56:18;3.91;89.98
6930;DHT22;3504;52.616;13.238;2023-12-14T10:01:27;3.94;89.72
6930;DHT22;3504;52.616;13.238;2023-12-14T10:06:28;3.91;89.47
6930;DHT22;3504;52.616;13.238;2023-12-14T10:11:28;3.95;89.62
6930;DHT22;3504;52.616;13.238;2023-12-14T10:16:33;3.95;89.67
6930;DHT22;3504;52.616;13.238;2023-12-14T10:21:34;3.97;89.55
6930;DHT22;3504;52.616;13.238;2023-12-14T10:26:35;4.05;89.46
6930;DHT22;3504;52.616;13.238;2023-12-14T10:31:36;4.05;88.98
6930;DHT22;3504;52.616;13.238;2023-12-14T10:36:38;3.95;89.01
6930;DHT22;3504;52.616;13.238;2023-12-14T10:41:39;4.00;89.44
6930;DHT22;3504;52.616;13.238;2023-12-14T10:46:39;4.01;89.38
6930;DHT22;3504;52.616;13.238;2023-12-14T10:51:41;4.05;89.25
6930;DHT22;3504;52.616;13.238;2023-12-14T10:56:42;4.04;89.16
6930;DHT22;3504;52.616;13.238;2023-12-14T11:01:43;4.11;89.54
6930;DHT22;3504;52.616;13.238;2023-12-14T11:06:43;4.18;89.17
6930;DHT22;3504;52.616;13.238;2023-12-14T11:17:05;4.29;89.03
6930;DHT22;3504;52.616;13.238;2023-12-14T11:22:11;4.38;89.06
6930;DHT22;3504;52.616;13.238;2023-12-14T11:27:12;4.42;88.60
6930;DHT22;3504;52.616;13.238;2023-12-14T11:32:13;4.46;88.35
6930;DHT22;3504;52.616;13.238;2023-12-14T11:37:14;4.51;88.22
6930;DHT22;3504;52.616;13.238;2023-12-14T11:42:18;4.52;88.17
6930;DHT22;3504;52.616;13.238;2023-12-14T11:47:18;4.51;87.67
6930;DHT22;3504;52.616;13.238;2023-12-14T11:52:19;4.46;87.70
6930;DHT22;3504;52.616;13.238;2023-12-14T11:57:19;4.52;88.01
6930;DHT22;3504;52.616;13.238;2023-12-14T12:02:23;4.56;87.59
6930;DHT22;3504;52.616;13.238;2023-12-14T12:07:24;4.52;87.46
6930;DHT22;3504;52.616;13.238;2023-12-14T12:12:24;4.49;87.68
6930;DHT22;3504;52.616;13.238;2023-12-14T12:17:25;4.58;87.89
6930;DHT22;3504;52.616;13.238;2023-12-14T12:22:26;4.49;87.55
6930;DHT22;3504;52.616;13.238;2023-12-14T12:27:27;4.45;87.58
6930;DHT22;3504;52.616;13.238;2023-12-14T12:32:27;4.51;87.90
6930;DHT22;3504;52.616;13.238;2023-12-14T12:37:28;4.45;87.52
6930;DHT22;3504;52.616;13.238;2023-12-14T12:42:28;4.49;87.79
6930;DHT22;3504;52.616;13.238;2023-12-14T12:47:30;4.51;87.79
6930;DHT22;3504;52.616;13.238;2023-12-14T12:52:30;4.39;87.73
6930;DHT22;3504;52.616;13.238;2023-12-14T12:57:31;4.36;87.65
6930;DHT22;3504;52.616;13.238;2023-12-14T13:02:31;4.39;87.60
6930;DHT22;3504;52.616;13.238;2023-12-14T13:07:31;4.39;87.75
6930;DHT22;3504;52.616;13.238;2023-12-14T13:12:32;4.36;87.50
6930;DHT22;3504;52.616;13.238;2023-12-14T13:17:33;4.35;87.59
6930;DHT22;3504;52.616;13.238;2023-12-14T13:22:33;4.41;87.89
6930;DHT22;3504;52.616;13.238;2023-12-14T13:27:34;4.39;87.68
6930;DHT22;3504;52.616;13.238;2023-12-14T13:32:36;4.38;87.82
6930;DHT22;3504;52.616;13.238;2023-12-14T13:37:37;4.41;88.06
6930;DHT22;3504;52.616;13.238;2023-12-14T13:42:37;4.38;87.33
6930;DHT22;3504;52.616;13.238;2023-12-14T13:47:37;4.34;87.71
6930;DHT22;3504;52.616;13.238;2023-12-14T13:52:38;4.34;88.05
6930;DHT22;3504;52.616;13.238;2023-12-14T13:57:38;4.32;87.92
6930;DHT22;3504;52.616;13.238;2023-12-14T14:02:40;4.31;87.89
6930;DHT22;3504;52.616;13.238;2023-12-14T14:07:40;4.32;88.16
6930;DHT22;3504;52.616;13.238;2023-12-14T14:12:41;4.34;88.04
6930;DHT22;3504;52.616;13.238;2023-12-14T14:17:42;4.25;87.71
6930;DHT22;3504;52.616;13.238;2023-12-14T14:22:42;4.25;87.75
6930;DHT22;3504;52.616;13.238;2023-12-14T14:27:43;4.24;87.75
6930;DHT22;3504;52.616;13.238;2023-12-14T14:32:47;4.25;87.66
6930;DHT22;3504;52.616;13.238;2023-12-14T14:37:47;4.26;88.10
6930;DHT22;3504;52.616;13.238;2023-12-14T14:42:48;4.32;88.24
6930;DHT22;3504;52.616;13.238;2023-12-14T14:47:49;4.36;88.09
6930;DHT22;3504;52.616;13.238;2023-12-14T14:52:50;4.32;87.99
6930;DHT22;3504;52.616;13.238;2023-12-14T14:57:50;4.28;87.79
6930;DHT22;3504;52.616;13.238;2023-12-14T15:02:51;4.25;88.16
6930;DHT22;3504;52.616;13.238;2023-12-14T15:07:51;4.26;88.20
6930;DHT22;3504;52.616;13.238;2023-12-14T15:12:52;4.24;88.22
6930;DHT22;3504;52.616;13.238;2023-12-14T15:17:52;4.25;88.35
6930;DHT22;3504;52.616;13.238;2023-12-14T15:22:53;4.32;88.47
6930;DHT22;3504;52.616;13.238;2023-12-14T15:27:53;4.34;88.40
6930;DHT22;3504;52.616;13.238;2023-12-14T15:32:54;4.36;88.36
6930;DHT22;3504;52.616;13.238;2023-12-14T15:37:54;4.42;88.35
6930;DHT22;3504;52.616;13.238;2023-12-14T15:42:55;4.41;88.30
6930;DHT22;3504;52.616;13.238;2023-12-14T15:47:56;4.42;88.41
6930;DHT22;3504;52.616;13.238;2023-12-14T15:52:56;4.41;88.32
6930;DHT22;3504;52.616;13.238;2023-12-14T15:57:57;4.45;88.32
6930;DHT22;3504;52.616;13.238;2023-12-14T16:02:57;4.42;88.19
6930;DHT22;3504;52.616;13.238;2023-12-14T16:07:58;4.36;87.78
6930;DHT22;3504;52.616;13.238;2023-12-14T16:12:58;4.34;88.06
6930;DHT22;3504;52.616;13.238;2023-12-14T16:17:59;4.35;88.18
6930;DHT22;3504;52.616;13.238;2023-12-14T16:22:59;4.32;88.06
6930;DHT22;3504;52.616;13.238;2023-12-14T16:28:00;4.32;88.12
6930;DHT22;3504;52.616;13.238;2023-12-14T16:33:01;4.31;88.17
6930;DHT22;3504;52.616;13.238;2023-12-14T16:38:01;4.29;88.25
6930;DHT22;3504;52.616;13.238;2023-12-14T16:43:02;4.28;88.15
6930;DHT22;3504;52.616;13.238;2023-12-14T16:48:03;4.29;88.08
6930;DHT22;3504;52.616;13.238;2023-12-14T16:53:04;4.18;88.09
6930;DHT22;3504;52.616;13.238;2023-12-14T16:58:05;4.18;88.36
6930;DHT22;3504;52.616;13.238;2023-12-14T17:03:05;4.22;88.37
6930;DHT22;3504;52.616;13.238;2023-12-14T17:08:06;4.24;88.36
6930;DHT22;3504;52.616;13.238;2023-12-14T17:13:06;4.21;88.25
6930;DHT22;3504;52.616;13.238;2023-12-14T17:18:07;4.14;87.71
6930;DHT22;3504;52.616;13.238;2023-12-14T17:23:07;4.02;87.84
6930;DHT22;3504;52.616;13.238;2023-12-14T17:28:08;4.05;88.13
6930;DHT22;3504;52.616;13.238;2023-12-14T17:33:10;4.04;87.57
6930;DHT22;3504;52.616;13.238;2023-12-14T17:38:12;4.02;88.03
6930;DHT22;3504;52.616;13.238;2023-12-14T17:43:12;3.97;87.64
6930;DHT22;3504;52.616;13.238;2023-12-14T17:48:13;3.91;87.70
6930;DHT22;3504;52.616;13.238;2023-12-14T17:53:14;3.87;87.64
6930;DHT22;3504;52.616;13.238;2023-12-14T17:58:14;3.90;88.09
6930;DHT22;3504;52.616;13.238;2023-12-14T18:03:15;3.89;88.04
6930;DHT22;3504;52.616;13.238;2023-12-14T18:08:15;3.84;87.85
6930;DHT22;3504;52.616;13.238;2023-12-14T18:13:16;3.80;87.93
6930;DHT22;3504;52.616;13.238;2023-12-14T18:18:17;3.87;87.97
6930;DHT22;3504;52.616;13.238;2023-12-14T18:23:18;3.81;87.89
6930;DHT22;3504;52.616;13.238;2023-12-14T18:28:18;3.81;87.95
6930;DHT22;3504;52.616;13.238;2023-12-14T18:33:20;3.81;87.85
6930;DHT22;3504;52.616;13.238;2023-12-14T18:38:20;3.84;88.04
6930;DHT22;3504;52.616;13.238;2023-12-14T18:43:21;3.84;87.71
6930;DHT22;3504;52.616;13.238;2023-12-14T18:48:21;3.81;87.75
6930;DHT22;3504;52.616;13.238;2023-12-14T18:53:22;3.77;87.32
6930;DHT22;3504;52.616;13.238;2023-12-14T18:58:22;3.71;87.27
6930;DHT22;3504;52.616;13.238;2023-12-14T19:03:23;3.70;87.55
6930;DHT22;3504;52.616;13.238;2023-12-14T19:08:23;3.62;87.28
6930;DHT22;3504;52.616;13.238;2023-12-14T19:13:24;3.63;87.73
6930;DHT22;3504;52.616;13.238;2023-12-14T19:18:24;3.67;87.93
6930;DHT22;3504;52.616;13.238;2023-12-14T19:23:25;3.70;87.64
6930;DHT22;3504;52.616;13.238;2023-12-14T19:28:26;3.67;87.35
6930;DHT22;3504;52.616;13.238;2023-12-14T19:33:26;3.62;87.14
6930;DHT22;3504;52.616;13.238;2023-12-14T19:38:26;3.62;87.28
6930;DHT22;3504;52.616;13.238;2023-12-14T19:43:27;3.63;87.46
6930;DHT22;3504;52.616;13.238;2023-12-14T19:48:28;3.67;87.67
6930;DHT22;3504;52.616;13.238;2023-12-14T19:53:29;3.69;87.62
6930;DHT22;3504;52.616;13.238;2023-12-14T19:58:31;3.70;87.75
6930;DHT22;3504;52.616;13.238;2023-12-14T20:03:35;3.71;87.67
6930;DHT22;3504;52.616;13.238;2023-12-14T20:08:37;3.73;87.66
6930;DHT22;3504;52.616;13.238;2023-12-14T20:13:38;3.73;87.65
6930;DHT22;3504;52.616;13.238;2023-12-14T20:18:38;3.71;87.72
6930;DHT22;3504;52.616;13.238;2023-12-14T20:23:40;3.74;87.79
6930;DHT22;3504;52.616;13.238;2023-12-14T20:28:40;3.71;87.74
6930;DHT22;3504;52.616;13.238;2023-12-14T20:33:42;3.71;87.83
6930;DHT22;3504;52.616;13.238;2023-12-14T20:38:43;3.73;87.77
6930;DHT22;3504;52.616;13.238;2023-12-14T20:43:44;3.69;87.86
6930;DHT22;3504;52.616;13.238;2023-12-14T20:48:46;3.70;87.95
6930;DHT22;3504;52.616;13.238;2023-12-14T20:53:46;3.70;87.92
6930;DHT22;3504;52.616;13.238;2023-12-14T20:58:47;3.71;87.93
6930;DHT22;3504;52.616;13.238;2023-12-14T21:03:48;3.73;87.87
6930;DHT22;3504;52.616;13.238;2023-12-14T21:08:50;3.73;87.89
6930;DHT22;3504;52.616;13.238;2023-12-14T21:13:52;3.70;87.86
6930;DHT22;3504;52.616;13.238;2023-12-14T21:18:52;3.74;87.97
6930;DHT22;3504;52.616;13.238;2023-12-14T21:23:53;3.63;87.25
6930;DHT22;3504;52.616;13.238;2023-12-14T21:28:53;3.58;87.89
6930;DHT22;3504;52.616;13.238;2023-12-14T21:33:54;3.63;87.98
6930;DHT22;3504;52.616;13.238;2023-12-14T21:38:54;3.60;88.00
6930;DHT22;3504;52.616;13.238;2023-12-14T21:43:55;3.64;87.97
6930;DHT22;3504;52.616;13.238;2023-12-14T21:48:55;3.63;88.01
6930;DHT22;3504;52.616;13.238;2023-12-14T21:53:56;3.64;87.94
6930;DHT22;3504;52.616;13.238;2023-12-14T21:58:58;3.63;88.02
6930;DHT22;3504;52.616;13.238;2023-12-14T22:03:58;3.63;87.99
6930;DHT22;3504;52.616;13.238;2023-12-14T22:09:03;3.63;88.00
6930;DHT22;3504;52.616;13.238;2023-12-14T22:14:04;3.66;87.91
6930;DHT22;3504;52.616;13.238;2023-12-14T22:19:07;3.63;87.82
6930;DHT22;3504;52.616;13.238;2023-12-14T22:24:07;3.58;87.60
6930;DHT22;3504;52.616;13.238;2023-12-14T22:29:08;3.56;88.02
6930;DHT22;3504;52.616;13.238;2023-12-14T22:34:09;3.55;88.07
6930;DHT22;3504;52.616;13.238;2023-12-14T22:39:11;3.52;88.02
6930;DHT22;3504;52.616;13.238;2023-12-14T22:44:12;3.55;87.98
6930;DHT22;3504;52.616;13.238;2023-12-14T22:49:12;3.52;88.01
6930;DHT22;3504;52.616;13.238;2023-12-14T22:54:13;3.49;87.89
6930;DHT22;3504;52.616;13.238;2023-12-14T22:59:13;3.49;87.94
6930;DHT22;3504;52.616;13.238;2023-12-14T23:04:13;3.48;87.88
6930;DHT22;3504;52.616;13.238;2023-12-14T23:09:15;3.46;88.04
6930;DHT22;3504;52.616;13.238;2023-12-14T23:14:16;3.46;88.10
6930;DHT22;3504;52.616;13.238;2023-12-14T23:19:16;3.48;88.08
6930;DHT22;3504;52.616;13.238;2023-12-14T23:24:17;3.49;88.08
6930;DHT22;3504;52.616;13.238;2023-12-14T23:29:17;3.48;87.88
6930;DHT22;3504;52.616;13.238;2023-12-14T23:34:18;3.48;87.89
6930;DHT22;3504;52.616;13.238;2023-12-14T23:39:18;3.49;88.03
6930;DHT22;3504;52.616;13.238;2023-12-14T23:44:19;3.48;87.95
6930;DHT22;3504;52.616;13.238;2023-12-14T23:49:19;3.46;87.98
6930;DHT22;3504;52.616;13.238;2023-12-14T23:54:20;3.46;87.84
6930;DHT22;3504;52.616;13.238;2023-12-14T23:59:20;3.45;87.86
